createdAt,value
2022-10-30T00:00:00.299Z,37.54
2022-10-30T00:01:00.289Z,37.22
2022-10-30T00:02:00.492Z,37.54
2022-10-30T00:03:00.846Z,36.90
2022-10-30T00:04:00.294Z,38.67
2022-10-30T00:05:00.263Z,36.25
2022-10-30T00:06:00.252Z,37.87
2022-10-30T00:07:00.245Z,37.06
2022-10-30T00:08:00.785Z,36.90
2022-10-30T00:09:00.231Z,37.38
2022-10-30T00:10:00.255Z,37.54
2022-10-30T00:11:00.214Z,37.22
2022-10-30T00:12:00.211Z,37.87
2022-10-30T00:13:00.199Z,38.19
2022-10-30T00:14:00.193Z,38.35
2022-10-30T00:15:00.213Z,37.54
2022-10-30T00:16:00.175Z,39.16
2022-10-30T00:17:00.167Z,38.99
2022-10-30T00:18:00.656Z,37.87
2022-10-30T00:19:00.165Z,37.54
2022-10-30T00:20:00.173Z,38.19
2022-10-30T00:21:03.239Z,37.38
2022-10-30T00:23:44.119Z,40.12
2022-10-30T00:24:44.135Z,37.38
2022-10-30T00:25:44.106Z,39.64
2022-10-30T00:26:44.100Z,38.83
2022-10-30T00:27:44.090Z,38.03
2022-10-30T00:28:44.079Z,36.58
2022-10-30T00:29:44.100Z,37.38
2022-10-30T00:30:44.066Z,36.74
2022-10-30T00:31:45.229Z,37.38
2022-10-30T00:32:45.214Z,39.64
2022-10-30T00:33:45.209Z,37.87
2022-10-30T00:34:45.229Z,37.22
2022-10-30T00:36:45.182Z,36.58
2022-10-30T00:37:45.177Z,38.83
2022-10-30T00:38:45.167Z,38.19
2022-10-30T00:39:45.189Z,37.87
2022-10-30T00:40:45.153Z,36.90
2022-10-30T00:41:45.149Z,36.58
2022-10-30T00:42:45.139Z,37.06
2022-10-30T00:43:45.136Z,36.74
2022-10-30T00:44:45.149Z,40.77
2022-10-30T00:45:45.138Z,36.74
2022-10-30T00:46:45.113Z,36.90
2022-10-30T00:47:45.123Z,37.87
2022-10-30T00:48:45.096Z,37.06
2022-10-30T00:49:45.112Z,38.03
2022-10-30T00:50:45.086Z,37.87
2022-10-30T00:51:45.071Z,36.90
2022-10-30T00:52:45.069Z,36.90
2022-10-30T00:53:45.055Z,36.90
2022-10-30T00:54:45.080Z,36.90
2022-10-30T00:55:45.039Z,38.99
2022-10-30T00:56:45.034Z,47.37
2022-10-30T00:57:45.032Z,51.72
2022-10-30T00:58:45.023Z,52.21
2022-10-30T00:59:45.038Z,50.92
2022-10-30T01:00:45.007Z,36.58
2022-10-30T01:01:45.178Z,36.25
2022-10-30T01:02:45.107Z,36.90
2022-10-30T01:03:44.988Z,36.58
2022-10-30T01:04:45.008Z,35.61
2022-10-30T01:05:44.972Z,38.35
2022-10-30T01:06:44.959Z,38.83
2022-10-30T01:07:44.954Z,40.28
2022-10-30T01:08:45.008Z,37.22
2022-10-30T01:09:44.958Z,36.90
2022-10-30T01:10:44.925Z,37.38
2022-10-30T01:11:44.915Z,36.90
2022-10-30T01:12:44.919Z,37.22
2022-10-30T01:13:44.900Z,37.06
2022-10-30T01:14:44.920Z,37.22
2022-10-30T01:15:44.888Z,38.03
2022-10-30T01:16:44.879Z,37.22
2022-10-30T01:17:44.873Z,38.19
2022-10-30T01:18:44.861Z,38.51
2022-10-30T01:19:44.879Z,38.51
2022-10-30T01:20:44.852Z,37.22
2022-10-30T01:21:44.836Z,37.71
2022-10-30T01:22:44.827Z,36.90
2022-10-30T01:23:44.829Z,37.22
2022-10-30T01:24:44.835Z,38.51
2022-10-30T01:25:45.811Z,39.32
2022-10-30T01:26:44.806Z,51.88
2022-10-30T01:27:44.802Z,52.21
2022-10-30T01:28:44.803Z,52.05
2022-10-30T01:29:44.802Z,51.40
2022-10-30T01:30:44.782Z,52.05
2022-10-30T01:31:44.783Z,53.82
2022-10-30T01:32:44.758Z,51.88
2022-10-30T01:33:44.755Z,52.21
2022-10-30T01:34:44.776Z,52.37
2022-10-30T01:35:44.733Z,51.88
2022-10-30T01:36:44.727Z,38.83
2022-10-30T01:37:44.727Z,38.19
2022-10-30T01:38:44.714Z,37.54
2022-10-30T01:39:44.740Z,36.09
2022-10-30T01:40:44.696Z,36.09
2022-10-30T01:41:44.693Z,37.38
2022-10-30T01:42:44.684Z,39.64
2022-10-30T01:44:17.324Z,38.35
2022-10-30T01:44:44.695Z,39.80
2022-10-30T01:45:44.664Z,38.35
2022-10-30T01:46:44.655Z,38.19
2022-10-30T01:47:44.646Z,38.83
2022-10-30T01:48:44.640Z,36.58
2022-10-30T01:49:44.656Z,35.93
2022-10-30T01:50:44.641Z,35.61
2022-10-30T01:51:44.607Z,36.74
2022-10-30T01:52:44.594Z,40.93
2022-10-30T01:53:45.597Z,40.93
2022-10-30T01:54:44.622Z,41.09
2022-10-30T01:55:44.582Z,39.64
2022-10-30T01:56:44.588Z,38.19
2022-10-30T01:57:44.568Z,38.19
2022-10-30T01:58:44.556Z,40.61
2022-10-30T01:59:44.571Z,39.64
2022-10-30T02:00:44.600Z,36.74
2022-10-30T02:01:44.628Z,36.09
2022-10-30T02:02:44.606Z,36.74
2022-10-30T02:03:44.530Z,38.35
2022-10-30T02:04:44.540Z,38.19
2022-10-30T02:05:44.504Z,37.87
2022-10-30T02:06:44.504Z,37.06
2022-10-30T02:07:44.493Z,36.74
2022-10-30T02:08:44.486Z,35.61
2022-10-30T02:09:44.502Z,36.42
2022-10-30T02:10:44.467Z,38.35
2022-10-30T02:11:44.456Z,38.83
2022-10-30T02:12:44.455Z,49.95
2022-10-30T02:13:44.440Z,36.42
2022-10-30T02:14:44.459Z,35.13
2022-10-30T02:15:44.423Z,35.13
2022-10-30T02:16:44.420Z,36.42
2022-10-30T02:17:44.421Z,36.90
2022-10-30T02:19:44.417Z,38.03
2022-10-30T02:20:44.394Z,36.74
2022-10-30T02:21:44.409Z,36.42
2022-10-30T02:22:44.424Z,37.06
2022-10-30T02:23:44.368Z,37.06
2022-10-30T02:24:44.382Z,37.38
2022-10-30T02:25:44.355Z,36.25
2022-10-30T02:26:44.340Z,37.22
2022-10-30T02:27:44.330Z,39.48
2022-10-30T02:28:44.309Z,37.22
2022-10-30T02:29:45.342Z,37.22
2022-10-30T02:30:44.320Z,37.06
2022-10-30T02:31:44.308Z,40.44
2022-10-30T02:32:44.305Z,37.71
2022-10-30T02:33:44.301Z,38.03
2022-10-30T02:34:44.316Z,40.44
2022-10-30T02:35:44.269Z,37.22
2022-10-30T02:36:44.246Z,37.06
2022-10-30T02:37:45.253Z,37.71
2022-10-30T02:38:44.248Z,37.71
2022-10-30T02:39:44.237Z,36.90
2022-10-30T02:40:44.261Z,37.22
2022-10-30T02:41:44.227Z,36.74
2022-10-30T02:42:44.217Z,37.38
2022-10-30T02:43:44.214Z,37.22
2022-10-30T02:44:44.213Z,36.74
2022-10-30T02:45:44.218Z,36.90
2022-10-30T02:46:44.187Z,37.38
2022-10-30T02:47:44.171Z,39.32
2022-10-30T02:48:44.171Z,37.71
2022-10-30T02:49:44.156Z,40.93
2022-10-30T02:50:44.186Z,36.09
2022-10-30T02:51:44.150Z,36.90
2022-10-30T02:52:44.136Z,37.38
2022-10-30T02:53:44.128Z,38.03
2022-10-30T02:54:44.130Z,37.38
2022-10-30T02:55:44.141Z,37.06
2022-10-30T02:56:44.103Z,36.25
2022-10-30T02:57:44.121Z,38.83
2022-10-30T02:58:45.092Z,49.31
2022-10-30T02:59:44.083Z,51.08
2022-10-30T03:00:44.102Z,53.50
2022-10-30T03:01:44.156Z,53.50
2022-10-30T03:02:44.122Z,53.66
2022-10-30T03:03:44.067Z,52.85
2022-10-30T03:04:44.042Z,52.53
2022-10-30T03:05:44.059Z,52.69
2022-10-30T03:06:44.037Z,52.53
2022-10-30T03:07:44.024Z,52.21
2022-10-30T03:08:44.009Z,51.88
2022-10-30T03:09:43.999Z,52.05
2022-10-30T03:10:44.027Z,52.21
2022-10-30T03:11:43.993Z,51.72
2022-10-30T03:12:43.980Z,52.21
2022-10-30T03:13:43.976Z,52.21
2022-10-30T03:14:43.971Z,52.37
2022-10-30T03:15:44.001Z,35.77
2022-10-30T03:16:43.957Z,36.90
2022-10-30T03:17:43.953Z,39.48
2022-10-30T03:18:43.940Z,38.35
2022-10-30T03:19:43.949Z,41.89
2022-10-30T03:20:43.981Z,37.71
2022-10-30T03:21:43.910Z,38.51
2022-10-30T03:22:43.921Z,38.19
2022-10-30T03:23:43.897Z,38.03
2022-10-30T03:24:43.888Z,38.83
2022-10-30T03:25:43.911Z,40.44
2022-10-30T03:26:43.877Z,39.48
2022-10-30T03:27:43.872Z,37.71
2022-10-30T03:28:43.857Z,37.54
2022-10-30T03:29:43.852Z,38.35
2022-10-30T03:30:43.865Z,38.03
2022-10-30T03:31:43.830Z,37.71
2022-10-30T03:32:43.824Z,37.87
2022-10-30T03:33:43.818Z,38.03
2022-10-30T03:34:43.806Z,38.03
2022-10-30T03:35:43.821Z,38.03
2022-10-30T03:36:44.795Z,37.87
2022-10-30T03:37:43.783Z,38.83
2022-10-30T03:38:43.776Z,43.83
2022-10-30T03:39:43.782Z,39.96
2022-10-30T03:40:43.822Z,38.99
2022-10-30T03:41:43.755Z,38.99
2022-10-30T03:42:43.747Z,38.67
2022-10-30T03:43:43.743Z,38.35
2022-10-30T03:44:44.741Z,38.67
2022-10-30T03:45:43.768Z,37.87
2022-10-30T03:46:43.771Z,37.87
2022-10-30T03:47:43.719Z,38.03
2022-10-30T03:48:43.705Z,39.96
2022-10-30T03:49:43.694Z,39.16
2022-10-30T03:50:43.724Z,38.35
2022-10-30T03:51:43.679Z,38.35
2022-10-30T03:52:43.677Z,37.06
2022-10-30T03:53:43.679Z,38.67
2022-10-30T03:54:43.656Z,39.32
2022-10-30T03:55:43.643Z,37.54
2022-10-30T03:56:44.670Z,39.96
2022-10-30T03:57:43.648Z,42.86
2022-10-30T03:58:43.635Z,39.32
2022-10-30T03:59:43.618Z,39.32
2022-10-30T04:00:43.619Z,39.32
2022-10-30T04:01:43.896Z,39.64
2022-10-30T04:02:43.596Z,38.83
2022-10-30T04:03:43.589Z,41.57
2022-10-30T04:04:43.585Z,39.16
2022-10-30T04:05:43.585Z,38.83
2022-10-30T04:06:43.614Z,39.96
2022-10-30T04:07:43.568Z,38.99
2022-10-30T04:08:43.581Z,39.32
2022-10-30T04:09:43.542Z,51.08
2022-10-30T04:10:43.590Z,50.76
2022-10-30T04:11:43.550Z,53.50
2022-10-30T04:12:43.520Z,53.50
2022-10-30T04:13:43.518Z,53.66
2022-10-30T04:14:43.510Z,53.01
2022-10-30T04:15:43.534Z,52.53
2022-10-30T04:16:43.517Z,52.85
2022-10-30T04:17:43.484Z,52.53
2022-10-30T04:18:43.473Z,52.21
2022-10-30T04:19:43.457Z,53.01
2022-10-30T04:20:43.459Z,51.88
2022-10-30T04:21:43.473Z,52.37
2022-10-30T04:22:43.454Z,52.37
2022-10-30T04:23:43.435Z,52.21
2022-10-30T04:24:43.430Z,52.37
2022-10-30T04:25:43.423Z,52.05
2022-10-30T04:26:43.444Z,52.05
2022-10-30T04:27:43.434Z,38.03
2022-10-30T04:28:43.428Z,41.09
2022-10-30T04:29:43.426Z,39.96
2022-10-30T04:30:43.388Z,40.61
2022-10-30T04:31:43.412Z,40.44
2022-10-30T04:32:43.363Z,38.83
2022-10-30T04:33:43.354Z,44.31
2022-10-30T04:34:43.349Z,39.32
2022-10-30T04:35:43.355Z,39.16
2022-10-30T04:36:43.370Z,39.32
2022-10-30T04:37:43.330Z,38.67
2022-10-30T04:38:43.326Z,39.80
2022-10-30T04:39:46.306Z,39.96
2022-10-30T04:40:43.302Z,39.64
2022-10-30T04:41:43.344Z,38.35
2022-10-30T04:42:43.288Z,38.83
2022-10-30T04:43:43.279Z,38.35
2022-10-30T04:44:43.275Z,38.35
2022-10-30T04:45:43.286Z,39.32
2022-10-30T04:46:43.259Z,38.51
2022-10-30T04:47:43.307Z,37.87
2022-10-30T04:48:43.243Z,39.16
2022-10-30T04:49:43.235Z,38.67
2022-10-30T04:50:43.232Z,38.51
2022-10-30T04:51:43.244Z,38.67
2022-10-30T04:52:43.224Z,38.19
2022-10-30T04:53:43.225Z,38.35
2022-10-30T04:54:43.201Z,38.67
2022-10-30T04:55:43.188Z,37.87
2022-10-30T04:56:43.210Z,39.32
2022-10-30T04:57:43.169Z,38.35
2022-10-30T04:58:43.250Z,41.09
2022-10-30T04:59:43.154Z,38.03
2022-10-30T05:00:43.146Z,38.67
2022-10-30T05:01:43.242Z,38.35
2022-10-30T05:03:43.265Z,40.12
2022-10-30T05:04:43.115Z,36.90
2022-10-30T05:05:43.106Z,37.06
2022-10-30T05:06:43.113Z,36.09
2022-10-30T05:07:43.115Z,36.74
2022-10-30T05:08:43.084Z,35.93
2022-10-30T05:09:43.072Z,36.42
2022-10-30T05:10:43.072Z,35.77
2022-10-30T05:11:43.080Z,37.06
2022-10-30T05:12:43.086Z,37.71
2022-10-30T05:13:43.047Z,36.90
2022-10-30T05:14:43.050Z,37.22
2022-10-30T05:15:43.027Z,38.67
2022-10-30T05:16:43.022Z,38.51
2022-10-30T05:17:43.032Z,48.34
2022-10-30T05:18:43.010Z,50.11
2022-10-30T05:19:42.996Z,38.99
2022-10-30T05:20:42.989Z,38.83
2022-10-30T05:21:42.983Z,38.19
2022-10-30T05:22:43.001Z,38.51
2022-10-30T05:23:42.968Z,39.16
2022-10-30T05:24:42.958Z,38.67
2022-10-30T05:25:42.955Z,38.99
2022-10-30T05:26:42.975Z,38.51
2022-10-30T05:27:43.016Z,38.51
2022-10-30T05:28:42.929Z,37.54
2022-10-30T05:29:42.925Z,37.22
2022-10-30T05:30:42.911Z,38.03
2022-10-30T05:31:42.904Z,38.83
2022-10-30T05:32:42.929Z,38.83
2022-10-30T05:33:42.894Z,37.87
2022-10-30T05:34:42.885Z,38.19
2022-10-30T05:35:42.885Z,37.71
2022-10-30T05:36:42.882Z,39.96
2022-10-30T05:37:42.948Z,40.28
2022-10-30T05:38:42.856Z,38.99
2022-10-30T05:39:42.849Z,41.89
2022-10-30T05:40:42.844Z,38.19
2022-10-30T05:41:42.836Z,38.51
2022-10-30T05:42:42.857Z,39.16
2022-10-30T05:43:42.815Z,40.12
2022-10-30T05:44:59.753Z,38.83
2022-10-30T05:45:44.814Z,38.35
2022-10-30T05:46:42.885Z,37.87
2022-10-30T05:47:42.815Z,37.22
2022-10-30T05:48:42.783Z,38.83
2022-10-30T05:49:42.773Z,38.19
2022-10-30T05:50:42.770Z,38.19
2022-10-30T05:51:42.766Z,38.03
2022-10-30T05:52:42.792Z,39.96
2022-10-30T05:53:42.758Z,38.67
2022-10-30T05:54:42.745Z,39.16
2022-10-30T05:55:42.738Z,37.87
2022-10-30T05:56:46.599Z,38.83
2022-10-30T05:57:42.748Z,37.54
2022-10-30T05:58:42.718Z,37.87
2022-10-30T05:59:42.711Z,38.35
2022-10-30T06:00:42.706Z,37.87
2022-10-30T06:02:42.780Z,37.54
2022-10-30T06:03:42.701Z,52.05
2022-10-30T06:04:42.679Z,53.33
2022-10-30T06:05:42.663Z,52.53
2022-10-30T06:06:42.645Z,52.37
2022-10-30T06:07:42.689Z,37.87
2022-10-30T06:08:42.633Z,37.22
2022-10-30T06:09:42.639Z,37.71
2022-10-30T06:10:42.630Z,37.71
2022-10-30T06:11:42.620Z,37.71
2022-10-30T06:12:42.634Z,38.03
2022-10-30T06:13:42.595Z,38.51
2022-10-30T06:14:42.585Z,36.58
2022-10-30T06:15:42.581Z,38.19
2022-10-30T06:16:42.593Z,38.83
2022-10-30T06:17:42.594Z,38.19
2022-10-30T06:18:42.561Z,37.54
2022-10-30T06:19:42.551Z,38.03
2022-10-30T06:20:42.534Z,38.83
2022-10-30T06:21:42.537Z,37.71
2022-10-30T06:22:42.555Z,38.19
2022-10-30T06:23:42.520Z,37.87
2022-10-30T06:24:42.505Z,37.87
2022-10-30T06:25:42.499Z,37.71
2022-10-30T06:26:42.491Z,38.19
2022-10-30T06:27:42.517Z,39.64
2022-10-30T06:28:42.478Z,40.77
2022-10-30T06:29:42.471Z,39.96
2022-10-30T06:30:42.462Z,41.09
2022-10-30T06:31:42.449Z,39.32
2022-10-30T06:32:42.475Z,38.83
2022-10-30T06:33:42.438Z,50.27
2022-10-30T06:34:42.439Z,53.82
2022-10-30T06:35:42.436Z,53.82
2022-10-30T06:36:42.434Z,53.66
2022-10-30T06:37:42.441Z,54.46
2022-10-30T06:38:42.413Z,53.33
2022-10-30T06:39:42.401Z,53.66
2022-10-30T06:40:42.388Z,54.14
2022-10-30T06:41:42.407Z,53.98
2022-10-30T06:42:42.401Z,53.50
2022-10-30T06:43:42.361Z,38.99
2022-10-30T06:44:42.352Z,37.54
2022-10-30T06:45:42.360Z,38.99
2022-10-30T06:46:42.340Z,38.03
2022-10-30T06:47:42.359Z,40.77
2022-10-30T06:48:42.328Z,37.22
2022-10-30T06:49:42.325Z,39.64
2022-10-30T06:50:42.312Z,39.48
2022-10-30T06:51:42.305Z,39.16
2022-10-30T06:52:42.322Z,38.83
2022-10-30T06:53:42.292Z,38.99
2022-10-30T06:54:42.279Z,38.99
2022-10-30T06:55:42.275Z,39.96
2022-10-30T06:56:42.269Z,40.61
2022-10-30T06:57:42.348Z,39.48
2022-10-30T06:58:42.245Z,39.48
2022-10-30T06:59:42.248Z,39.64
2022-10-30T07:00:42.298Z,39.32
2022-10-30T07:01:42.309Z,39.80
2022-10-30T07:02:42.257Z,41.89
2022-10-30T07:03:42.222Z,36.90
2022-10-30T07:04:42.200Z,39.48
2022-10-30T07:05:42.196Z,39.64
2022-10-30T07:06:42.193Z,41.41
2022-10-30T07:07:42.215Z,38.03
2022-10-30T07:08:42.174Z,38.19
2022-10-30T07:09:42.172Z,37.87
2022-10-30T07:10:42.169Z,42.38
2022-10-30T07:11:42.156Z,38.35
2022-10-30T07:12:42.181Z,39.16
2022-10-30T07:13:42.146Z,38.99
2022-10-30T07:14:42.133Z,38.83
2022-10-30T07:16:42.111Z,40.28
2022-10-30T07:17:42.140Z,41.73
2022-10-30T07:18:42.103Z,40.93
2022-10-30T07:19:42.091Z,49.95
2022-10-30T07:20:42.081Z,52.21
2022-10-30T07:21:42.082Z,42.54
2022-10-30T07:22:42.100Z,43.51
2022-10-30T07:23:42.056Z,41.41
2022-10-30T07:24:42.054Z,40.28
2022-10-30T07:25:42.039Z,40.12
2022-10-30T07:26:42.040Z,39.80
2022-10-30T07:27:42.055Z,36.25
2022-10-30T07:28:42.023Z,36.74
2022-10-30T07:29:42.015Z,45.60
2022-10-30T07:30:42.013Z,48.98
2022-10-30T07:31:49.667Z,49.95
2022-10-30T07:32:44.019Z,52.21
2022-10-30T07:33:41.982Z,51.40
2022-10-30T07:34:41.974Z,51.40
2022-10-30T07:35:41.966Z,51.40
2022-10-30T07:36:41.959Z,43.02
2022-10-30T07:37:41.985Z,44.15
2022-10-30T07:38:41.949Z,39.80
2022-10-30T07:39:41.937Z,39.32
2022-10-30T07:40:41.939Z,39.80
2022-10-30T07:41:45.985Z,39.48
2022-10-30T07:42:43.958Z,40.61
2022-10-30T07:43:42.914Z,38.99
2022-10-30T07:45:15.927Z,40.12
2022-10-30T07:45:41.899Z,46.73
2022-10-30T07:46:41.901Z,39.64
2022-10-30T07:47:41.899Z,38.03
2022-10-30T07:48:42.873Z,40.12
2022-10-30T07:49:41.864Z,39.48
2022-10-30T07:50:41.853Z,40.28
2022-10-30T07:51:41.853Z,40.28
2022-10-30T07:52:41.839Z,39.96
2022-10-30T07:53:41.861Z,40.12
2022-10-30T07:54:41.822Z,44.79
2022-10-30T07:55:41.820Z,42.86
2022-10-30T07:56:41.828Z,41.57
2022-10-30T07:57:42.897Z,47.21
2022-10-30T07:58:45.405Z,41.25
2022-10-30T07:59:42.837Z,43.02
2022-10-30T08:00:41.779Z,44.31
2022-10-30T08:01:41.851Z,41.89
2022-10-30T08:02:41.927Z,39.80
2022-10-30T08:03:41.768Z,38.99
2022-10-30T08:04:41.745Z,39.80
2022-10-30T08:05:41.739Z,39.32
2022-10-30T08:06:41.736Z,39.80
2022-10-30T08:07:41.728Z,45.28
2022-10-30T08:08:43.356Z,43.02
2022-10-30T08:09:42.713Z,41.73
2022-10-30T08:10:41.699Z,41.41
2022-10-30T08:11:41.700Z,40.28
2022-10-30T08:12:41.688Z,46.08
2022-10-30T08:13:41.701Z,41.57
2022-10-30T08:14:41.670Z,41.57
2022-10-30T08:15:41.667Z,43.02
2022-10-30T08:16:41.704Z,43.99
2022-10-30T08:17:41.648Z,47.05
2022-10-30T08:18:41.664Z,43.18
2022-10-30T08:19:41.631Z,42.86
2022-10-30T08:20:41.650Z,40.44
2022-10-30T08:21:41.617Z,45.92
2022-10-30T08:22:41.606Z,41.89
2022-10-30T08:23:41.661Z,40.44
2022-10-30T08:24:41.593Z,42.70
2022-10-30T08:25:41.587Z,45.76
2022-10-30T08:26:41.581Z,43.67
2022-10-30T08:27:41.577Z,43.18
2022-10-30T08:28:41.595Z,48.66
2022-10-30T08:29:41.558Z,39.96
2022-10-30T08:30:41.559Z,41.41
2022-10-30T08:31:41.547Z,47.53
2022-10-30T08:32:41.540Z,42.86
2022-10-30T08:33:41.559Z,41.09
2022-10-30T08:34:41.519Z,46.08
2022-10-30T08:35:41.512Z,42.06
2022-10-30T08:36:43.974Z,43.34
2022-10-30T08:37:42.501Z,44.63
2022-10-30T08:38:41.518Z,44.47
2022-10-30T08:39:41.487Z,42.06
2022-10-30T08:40:41.496Z,46.08
2022-10-30T08:41:41.469Z,50.92
2022-10-30T08:42:41.457Z,51.08
2022-10-30T08:43:41.478Z,50.76
2022-10-30T08:44:41.444Z,53.01
2022-10-30T08:45:41.435Z,52.69
2022-10-30T08:46:41.433Z,39.64
2022-10-30T08:47:41.422Z,41.57
2022-10-30T08:48:41.443Z,38.99
2022-10-30T08:49:41.406Z,40.12
2022-10-30T08:50:41.400Z,39.16
2022-10-30T08:51:41.391Z,38.67
2022-10-30T08:52:41.379Z,43.51
2022-10-30T08:53:41.402Z,38.51
2022-10-30T08:54:41.370Z,39.64
2022-10-30T08:55:41.361Z,41.89
2022-10-30T08:56:41.354Z,39.32
2022-10-30T08:57:41.345Z,40.93
2022-10-30T08:58:41.366Z,44.31
2022-10-30T08:59:41.333Z,45.12
2022-10-30T09:00:41.324Z,40.61
2022-10-30T09:01:41.404Z,41.89
2022-10-30T09:02:41.502Z,41.57
2022-10-30T09:03:41.330Z,42.06
2022-10-30T09:04:41.314Z,40.77
2022-10-30T09:05:41.284Z,40.61
2022-10-30T09:06:41.286Z,40.93
2022-10-30T09:07:41.280Z,47.53
2022-10-30T09:08:41.288Z,40.77
2022-10-30T09:09:41.254Z,38.83
2022-10-30T09:10:41.250Z,39.80
2022-10-30T09:11:41.241Z,42.86
2022-10-30T09:12:41.239Z,39.16
2022-10-30T09:13:41.254Z,38.83
2022-10-30T09:14:41.218Z,47.53
2022-10-30T09:15:41.211Z,51.08
2022-10-30T09:16:41.216Z,39.64
2022-10-30T09:17:41.195Z,40.44
2022-10-30T09:18:41.214Z,44.79
2022-10-30T09:19:41.202Z,44.15
2022-10-30T09:20:41.176Z,40.77
2022-10-30T09:21:41.168Z,40.93
2022-10-30T09:22:41.157Z,45.12
2022-10-30T09:23:41.176Z,42.06
2022-10-30T09:24:41.143Z,40.61
2022-10-30T09:25:41.140Z,43.51
2022-10-30T09:26:41.129Z,40.77
2022-10-30T09:27:41.117Z,42.06
2022-10-30T09:28:41.141Z,45.60
2022-10-30T09:29:41.112Z,45.92
2022-10-30T09:30:41.104Z,44.47
2022-10-30T09:31:41.091Z,43.18
2022-10-30T09:32:41.077Z,47.21
2022-10-30T09:33:41.100Z,45.12
2022-10-30T09:34:41.079Z,44.47
2022-10-30T09:35:41.058Z,48.18
2022-10-30T09:36:41.049Z,41.25
2022-10-30T09:37:41.042Z,40.93
2022-10-30T09:38:41.061Z,40.28
2022-10-30T09:39:41.026Z,45.76
2022-10-30T09:40:41.018Z,43.02
2022-10-30T09:41:41.019Z,46.08
2022-10-30T09:42:40.999Z,43.83
2022-10-30T09:43:41.018Z,43.99
2022-10-30T09:44:40.988Z,43.02
2022-10-30T09:45:40.982Z,42.38
2022-10-30T09:46:40.969Z,45.12
2022-10-30T09:47:40.964Z,42.70
2022-10-30T09:48:40.985Z,45.60
2022-10-30T09:49:40.947Z,44.96
2022-10-30T09:50:40.944Z,44.96
2022-10-30T09:51:40.933Z,40.44
2022-10-30T09:52:40.927Z,39.80
2022-10-30T09:53:40.961Z,44.96
2022-10-30T09:54:40.905Z,44.79
2022-10-30T09:55:40.902Z,42.54
2022-10-30T09:56:40.896Z,43.02
2022-10-30T09:57:40.889Z,44.31
2022-10-30T09:58:40.891Z,44.31
2022-10-30T09:59:40.899Z,47.53
2022-10-30T10:00:40.867Z,43.34
2022-10-30T10:01:40.959Z,47.05
2022-10-30T10:02:40.953Z,48.34
2022-10-30T10:03:40.910Z,47.70
2022-10-30T10:04:40.858Z,44.31
2022-10-30T10:05:40.831Z,44.47
2022-10-30T10:06:40.826Z,48.66
2022-10-30T10:07:40.816Z,47.05
2022-10-30T10:08:40.808Z,44.15
2022-10-30T10:09:40.868Z,41.41
2022-10-30T10:10:40.792Z,46.89
2022-10-30T10:11:40.788Z,43.34
2022-10-30T10:12:40.781Z,47.70
2022-10-30T10:13:40.770Z,40.28
2022-10-30T10:14:40.787Z,42.54
2022-10-30T10:15:40.752Z,42.70
2022-10-30T10:16:40.751Z,47.53
2022-10-30T10:17:40.738Z,39.48
2022-10-30T10:18:40.741Z,44.63
2022-10-30T10:19:40.749Z,43.67
2022-10-30T10:20:40.708Z,45.28
2022-10-30T10:21:41.705Z,48.02
2022-10-30T10:22:40.702Z,39.96
2022-10-30T10:23:40.694Z,43.99
2022-10-30T10:24:40.708Z,40.77
2022-10-30T10:25:40.675Z,39.16
2022-10-30T10:26:40.673Z,51.56
2022-10-30T10:27:40.662Z,49.31
2022-10-30T10:28:40.652Z,42.86
2022-10-30T10:29:40.671Z,40.28
2022-10-30T10:30:40.647Z,46.73
2022-10-30T10:31:40.636Z,47.86
2022-10-30T10:32:40.629Z,44.15
2022-10-30T10:33:40.615Z,43.02
2022-10-30T10:34:40.681Z,42.54
2022-10-30T10:35:40.609Z,60.75
2022-10-30T10:36:40.592Z,54.95
2022-10-30T10:37:40.588Z,44.63
2022-10-30T10:38:40.575Z,39.48
2022-10-30T10:39:40.603Z,49.79
2022-10-30T10:40:40.561Z,42.06
2022-10-30T10:41:40.555Z,42.06
2022-10-30T10:42:40.547Z,53.17
2022-10-30T10:43:40.545Z,44.15
2022-10-30T10:44:40.559Z,44.15
2022-10-30T10:45:40.532Z,43.83
2022-10-30T10:46:40.513Z,40.61
2022-10-30T10:47:40.510Z,45.12
2022-10-30T10:48:40.513Z,41.73
2022-10-30T10:49:40.527Z,44.15
2022-10-30T10:50:40.487Z,48.02
2022-10-30T10:51:40.478Z,46.08
2022-10-30T10:52:40.473Z,44.96
2022-10-30T10:53:40.468Z,46.89
2022-10-30T10:54:40.456Z,42.38
2022-10-30T10:55:40.479Z,41.25
2022-10-30T10:56:40.441Z,43.83
2022-10-30T10:57:40.434Z,39.80
2022-10-30T10:58:40.426Z,44.96
2022-10-30T10:59:40.450Z,45.92
2022-10-30T11:00:40.407Z,42.06
2022-10-30T11:01:40.551Z,43.18
2022-10-30T11:02:40.456Z,44.96
2022-10-30T11:03:40.392Z,46.25
2022-10-30T11:04:40.380Z,43.18
2022-10-30T11:05:40.403Z,42.70
2022-10-30T11:06:40.370Z,41.57
2022-10-30T11:07:40.361Z,44.31
2022-10-30T11:08:40.350Z,42.22
2022-10-30T11:09:40.348Z,46.25
2022-10-30T11:10:40.362Z,42.38
2022-10-30T11:11:40.327Z,42.06
2022-10-30T11:12:40.319Z,46.57
2022-10-30T11:13:40.315Z,44.15
2022-10-30T11:14:40.307Z,39.96
2022-10-30T11:15:40.327Z,43.51
2022-10-30T11:16:40.289Z,41.41
2022-10-30T11:17:40.285Z,44.96
2022-10-30T11:18:40.269Z,44.96
2022-10-30T11:19:40.273Z,39.64
2022-10-30T11:20:40.291Z,44.47
2022-10-30T11:21:40.256Z,43.51
2022-10-30T11:22:40.248Z,43.83
2022-10-30T11:23:40.249Z,37.71
2022-10-30T11:24:40.225Z,50.92
2022-10-30T11:25:40.247Z,45.76
2022-10-30T11:26:40.215Z,44.63
2022-10-30T11:27:40.203Z,52.05
2022-10-30T11:28:40.196Z,49.15
2022-10-30T11:29:40.192Z,41.09
2022-10-30T11:30:40.227Z,39.16
2022-10-30T11:31:40.230Z,46.41
2022-10-30T11:32:40.188Z,40.44
2022-10-30T11:33:40.164Z,43.83
2022-10-30T11:34:40.153Z,41.09
2022-10-30T11:35:40.170Z,39.80
2022-10-30T11:36:40.143Z,45.60
2022-10-30T11:37:40.131Z,42.54
2022-10-30T11:38:40.127Z,43.02
2022-10-30T11:39:40.117Z,41.41
2022-10-30T11:40:40.135Z,42.54
2022-10-30T11:41:40.101Z,42.70
2022-10-30T11:42:40.091Z,43.83
2022-10-30T11:43:40.081Z,38.99
2022-10-30T11:44:40.076Z,38.19
2022-10-30T11:45:40.104Z,46.57
2022-10-30T11:46:40.061Z,43.18
2022-10-30T11:47:40.071Z,41.57
2022-10-30T11:48:40.046Z,38.99
2022-10-30T11:49:40.044Z,50.11
2022-10-30T11:50:40.061Z,39.16
2022-10-30T11:51:40.104Z,40.28
2022-10-30T11:52:40.018Z,43.99
2022-10-30T11:53:40.038Z,47.86
2022-10-30T11:54:40.004Z,45.76
2022-10-30T11:55:40.026Z,43.51
2022-10-30T11:56:40.008Z,46.08
2022-10-30T11:57:39.981Z,47.70
2022-10-30T11:58:39.973Z,40.28
2022-10-30T11:59:39.966Z,44.31
2022-10-30T12:00:39.962Z,44.79
2022-10-30T12:01:40.032Z,44.79
2022-10-30T12:02:39.945Z,42.54
2022-10-30T12:03:39.934Z,39.96
2022-10-30T12:04:39.925Z,49.15
2022-10-30T12:05:41.644Z,41.25
2022-10-30T12:06:39.909Z,43.18
2022-10-30T12:07:39.900Z,39.96
2022-10-30T12:08:39.888Z,40.93
2022-10-30T12:09:39.882Z,38.99
2022-10-30T12:10:39.871Z,45.44
2022-10-30T12:11:39.896Z,49.63
2022-10-30T12:12:39.857Z,51.72
2022-10-30T12:13:39.863Z,42.70
2022-10-30T12:14:39.852Z,43.51
2022-10-30T12:15:39.848Z,46.89
2022-10-30T12:16:39.861Z,46.25
2022-10-30T12:17:39.820Z,44.96
2022-10-30T12:18:39.814Z,42.54
2022-10-30T12:19:39.808Z,45.12
2022-10-30T12:20:39.804Z,43.83
2022-10-30T12:21:39.833Z,41.25
2022-10-30T12:22:39.786Z,44.63
2022-10-30T12:23:39.780Z,42.06
2022-10-30T12:24:39.812Z,44.96
2022-10-30T12:25:39.764Z,40.93
2022-10-30T12:26:39.786Z,48.66
2022-10-30T12:27:39.744Z,46.41
2022-10-30T12:28:39.743Z,48.34
2022-10-30T12:30:06.873Z,45.92
2022-10-30T12:30:41.731Z,38.99
2022-10-30T12:31:39.742Z,48.82
2022-10-30T12:32:39.870Z,43.34
2022-10-30T12:33:39.702Z,47.05
2022-10-30T12:34:39.700Z,40.44
2022-10-30T12:35:39.687Z,44.47
2022-10-30T12:36:39.707Z,52.53
2022-10-30T12:37:39.673Z,43.18
2022-10-30T12:38:39.703Z,43.02
2022-10-30T12:39:39.658Z,45.28
2022-10-30T12:40:39.653Z,41.25
2022-10-30T12:41:39.667Z,46.73
2022-10-30T12:42:39.643Z,47.53
2022-10-30T12:43:39.641Z,41.09
2022-10-30T12:44:39.622Z,44.63
2022-10-30T12:45:39.613Z,45.60
2022-10-30T12:46:39.634Z,40.77
2022-10-30T12:47:39.595Z,46.73
2022-10-30T12:48:39.589Z,46.73
2022-10-30T12:49:39.583Z,41.41
2022-10-30T12:50:39.638Z,41.25
2022-10-30T12:51:39.600Z,43.67
2022-10-30T12:52:39.564Z,42.54
2022-10-30T12:53:39.564Z,48.18
2022-10-30T12:54:39.550Z,43.02
2022-10-30T12:55:39.542Z,39.80
2022-10-30T12:56:39.559Z,40.12
2022-10-30T12:57:39.529Z,45.60
2022-10-30T12:58:39.536Z,46.41